Terminal Aerodrome Forecast
Issued by NWS

Current Version | Previous Version | Graphics & Text | Print | Product List | Glossary On
Versions: 1 2 3 4 5 6 7 8 9 10 11 12 13 14
000
FTUS41 KRNK 202322
TAFLWB
TAF
KLWB 202322Z 2100/2124 VRB04KT P6SM SCT060
     FM210800 00000KT 4SM BR FEW002 BKN040
     FM211000 00000KT 1/2SM FG OVC007
     FM211300 26007KT P6SM SCT050=

USA.gov is the U.S. government's official web portal to all federal, state and local government web resources and services.